sensor_id;sensor_type;location;lat;lon;timestamp;temperature;humidity
21895;DHT22;11112;51.270;7.224;2024-02-16T00:01:00;12.80;99.90
21895;DHT22;11112;51.270;7.224;2024-02-16T00:03:53;12.80;99.90
21895;DHT22;11112;51.270;7.224;2024-02-16T00:06:47;12.80;99.90
21895;DHT22;11112;51.270;7.224;2024-02-16T00:09:39;12.80;99.90
21895;DHT22;11112;51.270;7.224;2024-02-16T00:12:37;12.80;99.90
21895;DHT22;11112;51.270;7.224;2024-02-16T00:15:29;12.80;99.90
21895;DHT22;11112;51.270;7.224;2024-02-16T00:18:22;12.80;99.90
21895;DHT22;11112;51.270;7.224;2024-02-16T00:21:15;12.70;99.90
21895;DHT22;11112;51.270;7.224;2024-02-16T00:24:07;12.70;99.90
21895;DHT22;11112;51.270;7.224;2024-02-16T00:27:00;12.70;99.90
21895;DHT22;11112;51.270;7.224;2024-02-16T00:29:57;12.70;99.90
21895;DHT22;11112;51.270;7.224;2024-02-16T00:32:52;12.70;99.90
21895;DHT22;11112;51.270;7.224;2024-02-16T00:35:37;12.70;99.90
21895;DHT22;11112;51.270;7.224;2024-02-16T00:38:15;12.70;99.90
21895;DHT22;11112;51.270;7.224;2024-02-16T00:41:08;12.70;99.90
21895;DHT22;11112;51.270;7.224;2024-02-16T00:44:09;12.70;99.90
21895;DHT22;11112;51.270;7.224;2024-02-16T00:47:05;12.70;99.90
21895;DHT22;11112;51.270;7.224;2024-02-16T00:50:00;12.70;99.90
21895;DHT22;11112;51.270;7.224;2024-02-16T00:52:53;12.70;99.90
21895;DHT22;11112;51.270;7.224;2024-02-16T00:55:47;12.70;99.90
21895;DHT22;11112;51.270;7.224;2024-02-16T00:58:41;12.80;99.90
21895;DHT22;11112;51.270;7.224;2024-02-16T01:01:36;12.80;99.90
21895;DHT22;11112;51.270;7.224;2024-02-16T01:04:34;12.70;99.90
21895;DHT22;11112;51.270;7.224;2024-02-16T01:07:27;12.80;99.90
21895;DHT22;11112;51.270;7.224;2024-02-16T01:10:23;12.80;99.90
21895;DHT22;11112;51.270;7.224;2024-02-16T01:13:15;12.80;99.90
21895;DHT22;11112;51.270;7.224;2024-02-16T01:16:10;12.80;99.90
21895;DHT22;11112;51.270;7.224;2024-02-16T01:19:02;12.80;99.90
21895;DHT22;11112;51.270;7.224;2024-02-16T01:21:49;12.80;99.90
21895;DHT22;11112;51.270;7.224;2024-02-16T01:24:33;12.80;99.90
21895;DHT22;11112;51.270;7.224;2024-02-16T01:27:11;12.80;99.90
21895;DHT22;11112;51.270;7.224;2024-02-16T01:29:54;12.80;99.90
21895;DHT22;11112;51.270;7.224;2024-02-16T01:32:45;12.80;99.90
21895;DHT22;11112;51.270;7.224;2024-02-16T01:35:38;12.80;99.90
21895;DHT22;11112;51.270;7.224;2024-02-16T01:38:36;12.80;99.90
21895;DHT22;11112;51.270;7.224;2024-02-16T01:41:28;12.80;99.90
21895;DHT22;11112;51.270;7.224;2024-02-16T01:44:23;12.80;99.90
21895;DHT22;11112;51.270;7.224;2024-02-16T01:47:01;12.80;99.90
21895;DHT22;11112;51.270;7.224;2024-02-16T01:49:53;12.80;99.90
21895;DHT22;11112;51.270;7.224;2024-02-16T01:52:46;12.70;99.90
21895;DHT22;11112;51.270;7.224;2024-02-16T01:55:44;12.70;99.90
21895;DHT22;11112;51.270;7.224;2024-02-16T01:58:30;12.70;99.90
21895;DHT22;11112;51.270;7.224;2024-02-16T02:01:08;12.80;99.90
21895;DHT22;11112;51.270;7.224;2024-02-16T02:04:04;12.70;99.90
21895;DHT22;11112;51.270;7.224;2024-02-16T02:06:56;12.70;99.90
21895;DHT22;11112;51.270;7.224;2024-02-16T02:09:56;12.70;99.90
21895;DHT22;11112;51.270;7.224;2024-02-16T02:12:54;12.70;99.90
21895;DHT22;11112;51.270;7.224;2024-02-16T02:15:47;12.70;99.90
21895;DHT22;11112;51.270;7.224;2024-02-16T02:18:39;12.70;99.90
21895;DHT22;11112;51.270;7.224;2024-02-16T02:21:34;12.70;99.90
21895;DHT22;11112;51.270;7.224;2024-02-16T02:24:28;12.70;99.90
21895;DHT22;11112;51.270;7.224;2024-02-16T02:27:10;12.70;99.90
21895;DHT22;11112;51.270;7.224;2024-02-16T02:30:01;12.70;99.90
21895;DHT22;11112;51.270;7.224;2024-02-16T02:32:31;12.70;99.90
21895;DHT22;11112;51.270;7.224;2024-02-16T02:35:23;12.70;99.90
21895;DHT22;11112;51.270;7.224;2024-02-16T02:38:19;12.80;99.90
21895;DHT22;11112;51.270;7.224;2024-02-16T02:41:17;12.80;99.90
21895;DHT22;11112;51.270;7.224;2024-02-16T02:44:11;12.70;99.90
21895;DHT22;11112;51.270;7.224;2024-02-16T02:47:06;12.70;99.90
21895;DHT22;11112;51.270;7.224;2024-02-16T02:49:56;12.70;99.90
21895;DHT22;11112;51.270;7.224;2024-02-16T02:52:55;12.70;99.90
21895;DHT22;11112;51.270;7.224;2024-02-16T02:55:45;12.70;99.90
21895;DHT22;11112;51.270;7.224;2024-02-16T02:58:40;12.70;99.90
21895;DHT22;11112;51.270;7.224;2024-02-16T03:01:33;12.70;99.90
21895;DHT22;11112;51.270;7.224;2024-02-16T03:04:26;12.70;99.90
21895;DHT22;11112;51.270;7.224;2024-02-16T03:07:18;12.80;99.90
21895;DHT22;11112;51.270;7.224;2024-02-16T03:10:01;12.80;99.90
21895;DHT22;11112;51.270;7.224;2024-02-16T03:12:39;12.70;99.90
21895;DHT22;11112;51.270;7.224;2024-02-16T03:15:37;12.70;99.90
21895;DHT22;11112;51.270;7.224;2024-02-16T03:18:31;12.80;99.90
21895;DHT22;11112;51.270;7.224;2024-02-16T03:21:23;12.80;99.90
21895;DHT22;11112;51.270;7.224;2024-02-16T03:24:16;12.80;99.90
21895;DHT22;11112;51.270;7.224;2024-02-16T03:27:08;12.80;99.90
21895;DHT22;11112;51.270;7.224;2024-02-16T03:30:01;12.80;99.90
21895;DHT22;11112;51.270;7.224;2024-02-16T03:32:49;12.80;99.90
21895;DHT22;11112;51.270;7.224;2024-02-16T03:35:49;12.70;99.90
21895;DHT22;11112;51.270;7.224;2024-02-16T03:38:43;12.70;99.90
21895;DHT22;11112;51.270;7.224;2024-02-16T03:41:33;12.70;99.90
21895;DHT22;11112;51.270;7.224;2024-02-16T03:44:17;12.70;99.90
21895;DHT22;11112;51.270;7.224;2024-02-16T03:47:18;12.70;99.90
21895;DHT22;11112;51.270;7.224;2024-02-16T03:50:23;12.70;99.90
21895;DHT22;11112;51.270;7.224;2024-02-16T03:53:17;12.70;99.90
21895;DHT22;11112;51.270;7.224;2024-02-16T03:56:01;12.70;99.90
21895;DHT22;11112;51.270;7.224;2024-02-16T03:58:53;12.70;99.90
21895;DHT22;11112;51.270;7.224;2024-02-16T04:01:47;12.70;99.90
21895;DHT22;11112;51.270;7.224;2024-02-16T04:04:39;12.60;99.90
21895;DHT22;11112;51.270;7.224;2024-02-16T04:07:37;12.60;99.90
21895;DHT22;11112;51.270;7.224;2024-02-16T04:10:30;12.70;99.90
21895;DHT22;11112;51.270;7.224;2024-02-16T04:13:22;12.70;99.90
21895;DHT22;11112;51.270;7.224;2024-02-16T04:16:15;12.70;99.90
21895;DHT22;11112;51.270;7.224;2024-02-16T04:19:10;12.70;99.90
21895;DHT22;11112;51.270;7.224;2024-02-16T04:21:48;12.60;99.90
21895;DHT22;11112;51.270;7.224;2024-02-16T04:24:17;12.70;99.90
21895;DHT22;11112;51.270;7.224;2024-02-16T04:26:44;12.70;99.90
21895;DHT22;11112;51.270;7.224;2024-02-16T04:29:11;12.70;99.90
21895;DHT22;11112;51.270;7.224;2024-02-16T04:31:39;12.70;99.90
21895;DHT22;11112;51.270;7.224;2024-02-16T04:34:07;12.70;99.90
21895;DHT22;11112;51.270;7.224;2024-02-16T04:36:34;12.70;99.90
21895;DHT22;11112;51.270;7.224;2024-02-16T04:39:02;12.70;99.90
21895;DHT22;11112;51.270;7.224;2024-02-16T04:41:30;12.70;99.90
21895;DHT22;11112;51.270;7.224;2024-02-16T04:43:57;12.70;99.90
21895;DHT22;11112;51.270;7.224;2024-02-16T04:46:24;12.70;99.90
21895;DHT22;11112;51.270;7.224;2024-02-16T04:48:52;12.60;99.90
21895;DHT22;11112;51.270;7.224;2024-02-16T04:51:19;12.70;99.90
21895;DHT22;11112;51.270;7.224;2024-02-16T04:53:49;12.70;99.90
21895;DHT22;11112;51.270;7.224;2024-02-16T04:56:16;12.70;99.90
21895;DHT22;11112;51.270;7.224;2024-02-16T04:58:45;12.70;99.90
21895;DHT22;11112;51.270;7.224;2024-02-16T05:01:13;12.70;99.90
21895;DHT22;11112;51.270;7.224;2024-02-16T05:03:40;12.70;99.90
21895;DHT22;11112;51.270;7.224;2024-02-16T05:06:07;12.70;99.90
21895;DHT22;11112;51.270;7.224;2024-02-16T05:08:34;12.70;99.90
21895;DHT22;11112;51.270;7.224;2024-02-16T05:11:01;12.70;99.90
21895;DHT22;11112;51.270;7.224;2024-02-16T05:13:29;12.70;99.90
21895;DHT22;11112;51.270;7.224;2024-02-16T05:15:57;12.70;99.90
21895;DHT22;11112;51.270;7.224;2024-02-16T05:18:24;12.80;99.90
21895;DHT22;11112;51.270;7.224;2024-02-16T05:20:53;12.80;99.90
21895;DHT22;11112;51.270;7.224;2024-02-16T05:23:20;12.80;99.90
21895;DHT22;11112;51.270;7.224;2024-02-16T05:25:48;12.80;99.90
21895;DHT22;11112;51.270;7.224;2024-02-16T05:28:15;12.80;99.90
21895;DHT22;11112;51.270;7.224;2024-02-16T05:30:42;12.80;99.90
21895;DHT22;11112;51.270;7.224;2024-02-16T05:33:11;12.80;99.90
21895;DHT22;11112;51.270;7.224;2024-02-16T05:35:39;12.80;99.90
21895;DHT22;11112;51.270;7.224;2024-02-16T05:38:09;12.80;99.90
21895;DHT22;11112;51.270;7.224;2024-02-16T05:40:46;12.80;99.90
21895;DHT22;11112;51.270;7.224;2024-02-16T05:43:22;12.80;99.90
21895;DHT22;11112;51.270;7.224;2024-02-16T05:45:49;12.80;99.90
21895;DHT22;11112;51.270;7.224;2024-02-16T05:48:18;12.80;99.90
21895;DHT22;11112;51.270;7.224;2024-02-16T05:50:45;12.80;99.90
21895;DHT22;11112;51.270;7.224;2024-02-16T05:53:12;12.80;99.90
21895;DHT22;11112;51.270;7.224;2024-02-16T05:55:39;12.80;99.90
21895;DHT22;11112;51.270;7.224;2024-02-16T05:58:09;12.80;99.90
21895;DHT22;11112;51.270;7.224;2024-02-16T06:00:36;12.80;99.90
21895;DHT22;11112;51.270;7.224;2024-02-16T06:03:03;12.80;99.90
21895;DHT22;11112;51.270;7.224;2024-02-16T06:05:31;12.80;99.90
21895;DHT22;11112;51.270;7.224;2024-02-16T06:07:58;12.80;99.90
21895;DHT22;11112;51.270;7.224;2024-02-16T06:10:26;12.80;99.90
21895;DHT22;11112;51.270;7.224;2024-02-16T06:12:53;12.80;99.90
21895;DHT22;11112;51.270;7.224;2024-02-16T06:15:20;12.70;99.90
21895;DHT22;11112;51.270;7.224;2024-02-16T06:17:48;12.70;99.90
21895;DHT22;11112;51.270;7.224;2024-02-16T06:20:16;12.70;99.90
21895;DHT22;11112;51.270;7.224;2024-02-16T06:22:45;12.70;99.90
21895;DHT22;11112;51.270;7.224;2024-02-16T06:25:12;12.70;99.90
21895;DHT22;11112;51.270;7.224;2024-02-16T06:27:39;12.70;99.90
21895;DHT22;11112;51.270;7.224;2024-02-16T06:30:07;12.70;99.90
21895;DHT22;11112;51.270;7.224;2024-02-16T06:32:38;12.70;99.90
21895;DHT22;11112;51.270;7.224;2024-02-16T06:35:07;12.70;99.90
21895;DHT22;11112;51.270;7.224;2024-02-16T06:37:35;12.70;99.90
21895;DHT22;11112;51.270;7.224;2024-02-16T06:40:05;12.70;99.90
21895;DHT22;11112;51.270;7.224;2024-02-16T06:42:35;12.70;99.90
21895;DHT22;11112;51.270;7.224;2024-02-16T06:45:02;12.70;99.90
21895;DHT22;11112;51.270;7.224;2024-02-16T06:47:30;12.70;99.90
21895;DHT22;11112;51.270;7.224;2024-02-16T06:49:57;12.70;99.90
21895;DHT22;11112;51.270;7.224;2024-02-16T06:52:25;12.70;99.90
21895;DHT22;11112;51.270;7.224;2024-02-16T06:54:52;12.70;99.90
21895;DHT22;11112;51.270;7.224;2024-02-16T06:57:20;12.70;99.90
21895;DHT22;11112;51.270;7.224;2024-02-16T06:59:47;12.70;99.90
21895;DHT22;11112;51.270;7.224;2024-02-16T07:02:14;12.70;99.90
21895;DHT22;11112;51.270;7.224;2024-02-16T07:04:43;12.70;99.90
21895;DHT22;11112;51.270;7.224;2024-02-16T07:07:11;12.70;99.90
21895;DHT22;11112;51.270;7.224;2024-02-16T07:09:38;12.70;99.90
21895;DHT22;11112;51.270;7.224;2024-02-16T07:12:06;12.70;99.90
21895;DHT22;11112;51.270;7.224;2024-02-16T07:14:35;12.70;99.90
21895;DHT22;11112;51.270;7.224;2024-02-16T07:17:02;12.70;99.90
21895;DHT22;11112;51.270;7.224;2024-02-16T07:19:29;12.70;99.90
21895;DHT22;11112;51.270;7.224;2024-02-16T07:21:56;12.80;99.90
21895;DHT22;11112;51.270;7.224;2024-02-16T07:24:23;12.80;99.90
21895;DHT22;11112;51.270;7.224;2024-02-16T07:26:50;12.80;99.90
21895;DHT22;11112;51.270;7.224;2024-02-16T07:29:18;12.80;99.90
21895;DHT22;11112;51.270;7.224;2024-02-16T07:31:47;12.80;99.90
21895;DHT22;11112;51.270;7.224;2024-02-16T07:34:16;12.80;99.90
21895;DHT22;11112;51.270;7.224;2024-02-16T07:36:43;12.80;99.90
21895;DHT22;11112;51.270;7.224;2024-02-16T07:39:10;12.90;99.90
21895;DHT22;11112;51.270;7.224;2024-02-16T07:41:38;12.90;99.90
21895;DHT22;11112;51.270;7.224;2024-02-16T07:44:05;12.90;99.90
21895;DHT22;11112;51.270;7.224;2024-02-16T07:46:32;12.90;99.90
21895;DHT22;11112;51.270;7.224;2024-02-16T07:49:00;12.90;99.90
21895;DHT22;11112;51.270;7.224;2024-02-16T07:51:29;12.90;99.90
21895;DHT22;11112;51.270;7.224;2024-02-16T07:53:56;12.90;99.90
21895;DHT22;11112;51.270;7.224;2024-02-16T07:56:23;12.90;99.90
21895;DHT22;11112;51.270;7.224;2024-02-16T07:58:51;12.90;99.90
21895;DHT22;11112;51.270;7.224;2024-02-16T08:01:18;12.90;99.90
21895;DHT22;11112;51.270;7.224;2024-02-16T08:03:45;12.90;99.90
21895;DHT22;11112;51.270;7.224;2024-02-16T08:06:13;12.90;99.90
21895;DHT22;11112;51.270;7.224;2024-02-16T08:08:42;12.90;99.90
21895;DHT22;11112;51.270;7.224;2024-02-16T08:11:09;13.00;99.90
21895;DHT22;11112;51.270;7.224;2024-02-16T08:13:36;13.00;99.90
21895;DHT22;11112;51.270;7.224;2024-02-16T08:16:03;13.00;99.90
21895;DHT22;11112;51.270;7.224;2024-02-16T08:18:32;13.00;99.90
21895;DHT22;11112;51.270;7.224;2024-02-16T08:20:59;13.00;99.90
21895;DHT22;11112;51.270;7.224;2024-02-16T08:23:28;13.00;99.90
21895;DHT22;11112;51.270;7.224;2024-02-16T08:25:56;13.00;99.90
21895;DHT22;11112;51.270;7.224;2024-02-16T08:28:23;13.10;99.90
21895;DHT22;11112;51.270;7.224;2024-02-16T08:30:50;13.10;99.90
21895;DHT22;11112;51.270;7.224;2024-02-16T08:33:17;13.10;99.90
21895;DHT22;11112;51.270;7.224;2024-02-16T08:35:45;13.10;99.90
21895;DHT22;11112;51.270;7.224;2024-02-16T08:38:12;13.10;99.90
21895;DHT22;11112;51.270;7.224;2024-02-16T08:40:41;13.10;99.90
21895;DHT22;11112;51.270;7.224;2024-02-16T08:43:08;13.10;99.90
21895;DHT22;11112;51.270;7.224;2024-02-16T08:45:35;13.10;99.90
21895;DHT22;11112;51.270;7.224;2024-02-16T08:48:02;13.10;99.90
21895;DHT22;11112;51.270;7.224;2024-02-16T08:50:29;13.10;99.90
21895;DHT22;11112;51.270;7.224;2024-02-16T08:52:58;13.10;99.90
21895;DHT22;11112;51.270;7.224;2024-02-16T08:55:25;13.10;99.90
21895;DHT22;11112;51.270;7.224;2024-02-16T08:57:53;13.20;99.90
21895;DHT22;11112;51.270;7.224;2024-02-16T09:00:20;13.10;99.90
21895;DHT22;11112;51.270;7.224;2024-02-16T09:02:48;13.20;99.90
21895;DHT22;11112;51.270;7.224;2024-02-16T09:05:16;13.20;99.90
21895;DHT22;11112;51.270;7.224;2024-02-16T09:07:43;13.20;99.90
21895;DHT22;11112;51.270;7.224;2024-02-16T09:10:10;13.20;99.90
21895;DHT22;11112;51.270;7.224;2024-02-16T09:12:37;13.20;99.90
21895;DHT22;11112;51.270;7.224;2024-02-16T09:15:07;13.20;99.90
21895;DHT22;11112;51.270;7.224;2024-02-16T09:17:34;13.20;99.90
21895;DHT22;11112;51.270;7.224;2024-02-16T09:20:01;13.20;99.90
21895;DHT22;11112;51.270;7.224;2024-02-16T09:22:30;13.30;99.90
21895;DHT22;11112;51.270;7.224;2024-02-16T09:24:57;13.30;99.90
21895;DHT22;11112;51.270;7.224;2024-02-16T09:27:25;13.30;99.90
21895;DHT22;11112;51.270;7.224;2024-02-16T09:29:52;13.30;99.90
21895;DHT22;11112;51.270;7.224;2024-02-16T09:32:20;13.30;99.90
21895;DHT22;11112;51.270;7.224;2024-02-16T09:34:48;13.30;99.90
21895;DHT22;11112;51.270;7.224;2024-02-16T09:37:16;13.30;99.90
21895;DHT22;11112;51.270;7.224;2024-02-16T09:39:43;13.30;99.90
21895;DHT22;11112;51.270;7.224;2024-02-16T09:42:10;13.30;99.90
21895;DHT22;11112;51.270;7.224;2024-02-16T09:44:40;13.30;99.90
21895;DHT22;11112;51.270;7.224;2024-02-16T09:47:09;13.30;99.90
21895;DHT22;11112;51.270;7.224;2024-02-16T09:49:40;13.40;99.90
21895;DHT22;11112;51.270;7.224;2024-02-16T09:52:10;13.40;99.90
21895;DHT22;11112;51.270;7.224;2024-02-16T09:54:38;13.40;99.90
21895;DHT22;11112;51.270;7.224;2024-02-16T09:57:06;13.40;99.90
21895;DHT22;11112;51.270;7.224;2024-02-16T09:59:33;13.40;99.90
21895;DHT22;11112;51.270;7.224;2024-02-16T10:02:01;13.40;99.90
21895;DHT22;11112;51.270;7.224;2024-02-16T10:04:29;13.50;99.90
21895;DHT22;11112;51.270;7.224;2024-02-16T10:06:58;13.50;99.90
21895;DHT22;11112;51.270;7.224;2024-02-16T10:09:26;13.50;99.90
21895;DHT22;11112;51.270;7.224;2024-02-16T10:11:55;13.50;99.90
21895;DHT22;11112;51.270;7.224;2024-02-16T10:14:22;13.50;99.90
21895;DHT22;11112;51.270;7.224;2024-02-16T10:16:59;13.50;99.90
21895;DHT22;11112;51.270;7.224;2024-02-16T10:19:28;13.50;99.90
21895;DHT22;11112;51.270;7.224;2024-02-16T10:22:07;13.50;99.90
21895;DHT22;11112;51.270;7.224;2024-02-16T10:24:35;13.50;99.90
21895;DHT22;11112;51.270;7.224;2024-02-16T10:27:04;13.50;99.90
21895;DHT22;11112;51.270;7.224;2024-02-16T10:29:32;13.60;99.90
21895;DHT22;11112;51.270;7.224;2024-02-16T10:32:00;13.60;99.90
21895;DHT22;11112;51.270;7.224;2024-02-16T10:34:28;13.60;99.90
21895;DHT22;11112;51.270;7.224;2024-02-16T10:36:57;13.60;99.90
21895;DHT22;11112;51.270;7.224;2024-02-16T10:39:26;13.60;99.90
21895;DHT22;11112;51.270;7.224;2024-02-16T10:41:54;13.60;99.90
21895;DHT22;11112;51.270;7.224;2024-02-16T10:44:24;13.60;99.90
21895;DHT22;11112;51.270;7.224;2024-02-16T10:46:51;13.60;99.90
21895;DHT22;11112;51.270;7.224;2024-02-16T10:49:18;13.60;99.90
21895;DHT22;11112;51.270;7.224;2024-02-16T10:51:48;13.60;99.90
21895;DHT22;11112;51.270;7.224;2024-02-16T10:54:19;13.60;99.90
21895;DHT22;11112;51.270;7.224;2024-02-16T10:56:53;13.70;99.90
21895;DHT22;11112;51.270;7.224;2024-02-16T10:59:20;13.70;99.90
21895;DHT22;11112;51.270;7.224;2024-02-16T11:01:47;13.70;99.90
21895;DHT22;11112;51.270;7.224;2024-02-16T11:04:16;13.70;99.90
21895;DHT22;11112;51.270;7.224;2024-02-16T11:06:48;13.70;99.90
21895;DHT22;11112;51.270;7.224;2024-02-16T11:09:26;13.70;99.90
21895;DHT22;11112;51.270;7.224;2024-02-16T11:11:58;13.70;99.90
21895;DHT22;11112;51.270;7.224;2024-02-16T11:14:34;13.70;99.90
21895;DHT22;11112;51.270;7.224;2024-02-16T11:17:02;13.70;99.90
21895;DHT22;11112;51.270;7.224;2024-02-16T11:19:35;13.70;99.90
21895;DHT22;11112;51.270;7.224;2024-02-16T11:22:03;13.70;99.90
21895;DHT22;11112;51.270;7.224;2024-02-16T11:24:34;13.70;99.90
21895;DHT22;11112;51.270;7.224;2024-02-16T11:27:04;13.70;99.90
21895;DHT22;11112;51.270;7.224;2024-02-16T11:29:33;13.70;99.90
21895;DHT22;11112;51.270;7.224;2024-02-16T11:32:02;13.70;99.90
21895;DHT22;11112;51.270;7.224;2024-02-16T11:34:30;13.70;99.90
21895;DHT22;11112;51.270;7.224;2024-02-16T11:36:59;13.70;99.90
21895;DHT22;11112;51.270;7.224;2024-02-16T11:39:27;13.70;99.90
21895;DHT22;11112;51.270;7.224;2024-02-16T11:42:00;13.70;99.90
21895;DHT22;11112;51.270;7.224;2024-02-16T11:44:30;13.70;99.90
21895;DHT22;11112;51.270;7.224;2024-02-16T11:46:58;13.70;99.90
21895;DHT22;11112;51.270;7.224;2024-02-16T11:49:26;13.70;99.90
21895;DHT22;11112;51.270;7.224;2024-02-16T11:51:54;13.70;99.90
21895;DHT22;11112;51.270;7.224;2024-02-16T11:54:21;13.70;99.90
21895;DHT22;11112;51.270;7.224;2024-02-16T11:56:49;13.70;99.90
21895;DHT22;11112;51.270;7.224;2024-02-16T11:59:17;13.70;99.90
21895;DHT22;11112;51.270;7.224;2024-02-16T12:01:52;13.70;99.90
21895;DHT22;11112;51.270;7.224;2024-02-16T12:04:22;13.70;99.90
21895;DHT22;11112;51.270;7.224;2024-02-16T12:06:52;13.70;99.90
21895;DHT22;11112;51.270;7.224;2024-02-16T12:09:20;13.70;99.90
21895;DHT22;11112;51.270;7.224;2024-02-16T12:11:48;13.70;99.90
21895;DHT22;11112;51.270;7.224;2024-02-16T12:14:16;13.70;99.90
21895;DHT22;11112;51.270;7.224;2024-02-16T12:16:47;13.70;99.90
21895;DHT22;11112;51.270;7.224;2024-02-16T12:19:17;13.60;99.90
21895;DHT22;11112;51.270;7.224;2024-02-16T12:21:48;13.60;99.90
21895;DHT22;11112;51.270;7.224;2024-02-16T12:24:16;13.60;99.90
21895;DHT22;11112;51.270;7.224;2024-02-16T12:26:43;13.60;99.90
21895;DHT22;11112;51.270;7.224;2024-02-16T12:29:11;13.60;99.90
21895;DHT22;11112;51.270;7.224;2024-02-16T12:31:39;13.60;99.90
21895;DHT22;11112;51.270;7.224;2024-02-16T12:34:06;13.60;99.90
21895;DHT22;11112;51.270;7.224;2024-02-16T12:36:35;13.60;99.90
21895;DHT22;11112;51.270;7.224;2024-02-16T12:39:03;13.60;99.90
21895;DHT22;11112;51.270;7.224;2024-02-16T12:41:31;13.60;99.90
21895;DHT22;11112;51.270;7.224;2024-02-16T12:43:59;13.60;99.90
21895;DHT22;11112;51.270;7.224;2024-02-16T12:46:26;13.60;99.90
21895;DHT22;11112;51.270;7.224;2024-02-16T12:48:53;13.60;99.90
21895;DHT22;11112;51.270;7.224;2024-02-16T12:51:20;13.60;99.90
21895;DHT22;11112;51.270;7.224;2024-02-16T12:53:49;13.60;99.90
21895;DHT22;11112;51.270;7.224;2024-02-16T12:56:16;13.60;99.90
21895;DHT22;11112;51.270;7.224;2024-02-16T12:58:44;13.60;99.90
21895;DHT22;11112;51.270;7.224;2024-02-16T13:01:11;13.60;99.90
21895;DHT22;11112;51.270;7.224;2024-02-16T13:03:38;13.60;99.90
21895;DHT22;11112;51.270;7.224;2024-02-16T13:06:07;13.60;99.90
21895;DHT22;11112;51.270;7.224;2024-02-16T13:08:35;13.60;99.90
21895;DHT22;11112;51.270;7.224;2024-02-16T13:11:04;13.60;99.90
21895;DHT22;11112;51.270;7.224;2024-02-16T13:13:31;13.60;99.90
21895;DHT22;11112;51.270;7.224;2024-02-16T13:15:58;13.60;99.90
21895;DHT22;11112;51.270;7.224;2024-02-16T13:18:25;13.60;99.90
21895;DHT22;11112;51.270;7.224;2024-02-16T13:20:52;13.50;99.90
21895;DHT22;11112;51.270;7.224;2024-02-16T13:23:20;13.50;99.90
21895;DHT22;11112;51.270;7.224;2024-02-16T13:25:47;13.50;99.90
21895;DHT22;11112;51.270;7.224;2024-02-16T13:28:15;13.50;99.90
21895;DHT22;11112;51.270;7.224;2024-02-16T13:30:42;13.50;99.90
21895;DHT22;11112;51.270;7.224;2024-02-16T13:33:10;13.40;99.90
21895;DHT22;11112;51.270;7.224;2024-02-16T13:35:37;13.40;99.90
21895;DHT22;11112;51.270;7.224;2024-02-16T13:38:04;13.50;99.90
21895;DHT22;11112;51.270;7.224;2024-02-16T13:40:31;13.40;99.90
21895;DHT22;11112;51.270;7.224;2024-02-16T13:42:59;13.40;99.90
21895;DHT22;11112;51.270;7.224;2024-02-16T13:45:30;13.40;99.90
21895;DHT22;11112;51.270;7.224;2024-02-16T13:48:13;13.40;99.90
21895;DHT22;11112;51.270;7.224;2024-02-16T13:50:40;13.40;99.90
21895;DHT22;11112;51.270;7.224;2024-02-16T13:53:10;13.40;99.90
21895;DHT22;11112;51.270;7.224;2024-02-16T13:55:38;13.40;99.90
21895;DHT22;11112;51.270;7.224;2024-02-16T13:58:05;13.40;99.90
21895;DHT22;11112;51.270;7.224;2024-02-16T14:00:33;13.40;99.90
21895;DHT22;11112;51.270;7.224;2024-02-16T14:03:01;13.40;99.90
21895;DHT22;11112;51.270;7.224;2024-02-16T14:05:28;13.40;99.90
21895;DHT22;11112;51.270;7.224;2024-02-16T14:07:55;13.40;99.90
21895;DHT22;11112;51.270;7.224;2024-02-16T14:10:22;13.40;99.90
21895;DHT22;11112;51.270;7.224;2024-02-16T14:12:49;13.50;99.90
21895;DHT22;11112;51.270;7.224;2024-02-16T14:15:17;13.40;99.90
21895;DHT22;11112;51.270;7.224;2024-02-16T14:17:47;13.40;99.90
21895;DHT22;11112;51.270;7.224;2024-02-16T14:20:14;13.40;99.90
21895;DHT22;11112;51.270;7.224;2024-02-16T14:22:41;13.40;99.90
21895;DHT22;11112;51.270;7.224;2024-02-16T14:25:10;13.50;99.90
21895;DHT22;11112;51.270;7.224;2024-02-16T14:27:38;13.40;99.90
21895;DHT22;11112;51.270;7.224;2024-02-16T14:30:07;13.40;99.90
21895;DHT22;11112;51.270;7.224;2024-02-16T14:32:35;13.40;99.90
21895;DHT22;11112;51.270;7.224;2024-02-16T14:35:04;13.40;99.90
21895;DHT22;11112;51.270;7.224;2024-02-16T14:37:32;13.40;99.90
21895;DHT22;11112;51.270;7.224;2024-02-16T14:39:59;13.40;99.90
21895;DHT22;11112;51.270;7.224;2024-02-16T14:42:27;13.40;99.90
21895;DHT22;11112;51.270;7.224;2024-02-16T14:44:54;13.40;99.90
21895;DHT22;11112;51.270;7.224;2024-02-16T14:47:21;13.40;99.90
21895;DHT22;11112;51.270;7.224;2024-02-16T14:49:48;13.40;99.90
21895;DHT22;11112;51.270;7.224;2024-02-16T14:52:17;13.40;99.90
21895;DHT22;11112;51.270;7.224;2024-02-16T14:54:44;13.40;99.90
21895;DHT22;11112;51.270;7.224;2024-02-16T14:57:11;13.40;99.90
21895;DHT22;11112;51.270;7.224;2024-02-16T14:59:38;13.40;99.90
21895;DHT22;11112;51.270;7.224;2024-02-16T15:02:06;13.40;99.90
21895;DHT22;11112;51.270;7.224;2024-02-16T15:04:33;13.40;99.90
21895;DHT22;11112;51.270;7.224;2024-02-16T15:07:01;13.40;99.90
21895;DHT22;11112;51.270;7.224;2024-02-16T15:09:29;13.40;99.90
21895;DHT22;11112;51.270;7.224;2024-02-16T15:11:56;13.40;99.90
21895;DHT22;11112;51.270;7.224;2024-02-16T15:14:23;13.40;99.90
21895;DHT22;11112;51.270;7.224;2024-02-16T15:16:50;13.40;99.90
21895;DHT22;11112;51.270;7.224;2024-02-16T15:19:18;13.40;99.90
21895;DHT22;11112;51.270;7.224;2024-02-16T15:21:45;13.30;99.90
21895;DHT22;11112;51.270;7.224;2024-02-16T15:24:12;13.40;99.90
21895;DHT22;11112;51.270;7.224;2024-02-16T15:26:41;13.30;99.90
21895;DHT22;11112;51.270;7.224;2024-02-16T15:29:08;13.30;99.90
21895;DHT22;11112;51.270;7.224;2024-02-16T15:31:35;13.40;99.90
21895;DHT22;11112;51.270;7.224;2024-02-16T15:34:02;13.30;99.90
21895;DHT22;11112;51.270;7.224;2024-02-16T15:36:29;13.30;99.90
21895;DHT22;11112;51.270;7.224;2024-02-16T15:38:56;13.30;99.90
21895;DHT22;11112;51.270;7.224;2024-02-16T15:41:25;13.30;99.90
21895;DHT22;11112;51.270;7.224;2024-02-16T15:43:54;13.30;99.90
21895;DHT22;11112;51.270;7.224;2024-02-16T15:46:21;13.40;99.90
21895;DHT22;11112;51.270;7.224;2024-02-16T15:48:48;13.30;99.90
21895;DHT22;11112;51.270;7.224;2024-02-16T15:51:15;13.40;99.90
21895;DHT22;11112;51.270;7.224;2024-02-16T15:53:43;13.30;99.90
21895;DHT22;11112;51.270;7.224;2024-02-16T15:56:10;13.30;99.90
21895;DHT22;11112;51.270;7.224;2024-02-16T15:58:38;13.30;99.90
21895;DHT22;11112;51.270;7.224;2024-02-16T16:01:06;13.30;99.90
21895;DHT22;11112;51.270;7.224;2024-02-16T16:03:33;13.30;99.90
21895;DHT22;11112;51.270;7.224;2024-02-16T16:06:00;13.30;99.90
21895;DHT22;11112;51.270;7.224;2024-02-16T16:08:27;13.30;99.90
21895;DHT22;11112;51.270;7.224;2024-02-16T16:10:54;13.30;99.90